• Join FlightAware (Why Join?)
  • Login
  • US Flag 
07:46AM EDT


 

Airport Tracker/Info


-or-


 

Live Flight TrackerFlight Track Log ✈ TAM3518 ✈ 22-Jul-2013 ✈ SBVT / VIX - SBBR / BSB

Flight Track Log - Related Links

Times and Time Zones

All times are in EDT time to prevent confusion due to time zone crossing. See the TAM3518 flight status page for this flight to view local times or setup timezone preferences in your user account.

Time Position Orientation Groundspeed Altitude Reporting Facility
EDT Latitude Longitude Course Direction KTS MPH feet Rate Location/Type
07:15AM -19.6124 -41.4666 300° West  Level Estimated
07:16AM -19.5690 -41.5449 300° West  Level Estimated
07:17AM -19.5257 -41.6232 300° West  Level Estimated
07:18AM -19.4823 -41.7015 300° West  Level Estimated
07:19AM -19.4389 -41.7797 300° West  Level Estimated
07:20AM -19.3954 -41.8578 301° West  Level Estimated
07:21AM -19.3519 -41.9360 301° West  Level Estimated
07:22AM -19.3084 -42.0140 301° West  Level Estimated
07:23AM -19.2648 -42.0921 301° West  Level Estimated
07:24AM -19.2213 -42.1701 301° West  Level Estimated
07:25AM -19.1776 -42.2481 301° West  Level Estimated
07:26AM -19.1249 -42.3421 301° West  Level Estimated
07:27AM -19.0722 -42.4361 301° West  Level Estimated
07:28AM -19.0194 -42.5301 301° West  Level Estimated
07:29AM -18.9665 -42.6240 301° West  Level Estimated
07:30AM -18.9136 -42.7178 301° West  Level Estimated
07:31AM -18.8607 -42.8116 301° West  Level Estimated
07:32AM -18.8077 -42.9053 301° West  Level Estimated
07:33AM -18.7546 -42.9989 301° West  Level Estimated
07:34AM -18.7015 -43.0925 301° West  Level Estimated
07:35AM -18.6484 -43.1861 301° West  Level Estimated
07:36AM -18.5952 -43.2795 301° West  Level Estimated
07:37AM -18.5420 -43.3730 301° West  Level Estimated
07:38AM -18.4887 -43.4663 301° West  Level Estimated
07:39AM -18.4354 -43.5596 301° West  Level Estimated
07:40AM -18.3820 -43.6529 301° West  Level Estimated
07:41AM -18.3286 -43.7460 301° West  Level Estimated
07:42AM -18.2752 -43.8392 301° West  Level Estimated
07:43AM -18.2217 -43.9322 301° West  Level Estimated
07:44AM -18.1681 -44.0252 301° West  Level Estimated
07:45AM -18.1146 -44.1182 301° West  Level Estimated
07:46AM -18.0609 -44.2111 301° West  Level Estimated
07:47AM -18.0072 -44.3040 301° West  Level Estimated
07:48AM -17.9535 -44.3967 301° West  Level Estimated
07:49AM -17.8998 -44.4895 301° West  Level Estimated
07:50AM -17.8460 -44.5821 301° West  Level Estimated
07:51AM -17.7921 -44.6748 301° West  Level Estimated
07:52AM -17.7382 -44.7673 301° West  Level Estimated
07:53AM -17.6843 -44.8598 301° West  Level Estimated
07:54AM -17.6303 -44.9523 301° West  Level Estimated
07:55AM -17.5763 -45.0447 302° West  Level Estimated
07:56AM -17.5222 -45.1370 302° West  Level Estimated
07:57AM -17.4681 -45.2293 302° West  Level Estimated
07:58AM -17.4139 -45.3215 302° West  Level Estimated
07:59AM -17.3597 -45.4137 302° West  Level Estimated
08:00AM -17.3055 -45.5058 302° West  Level Estimated
08:01AM -17.2512 -45.5979 302° West  Level Estimated
08:02AM -17.1969 -45.6899 302° West  Level Estimated
08:03AM -17.1425 -45.7819 302° West  Level Estimated
08:04AM -17.0881 -45.8738 302° West  Level Estimated
08:05AM -17.0337 -45.9656 302° West  Level Estimated
08:06AM -16.9792 -46.0574 302° West  Level Estimated
08:07AM -16.9247 -46.1492 302° West  Level Estimated
08:08AM -16.8701 -46.2409 302° West  Level Estimated
08:09AM -16.8155 -46.3325 302° West  Level Estimated
08:10AM -16.7608 -46.4241 302° West  Level Estimated
08:11AM -16.7061 -46.5156 302° West  Level Estimated
08:12AM -16.6514 -46.6071 302° West  Level Estimated
08:13AM -16.5966 -46.6985 302° West  Level Estimated
08:14AM -16.5418 -46.7899 302° West  Level Estimated
08:15AM -16.4870 -46.8812 302° West  Level Estimated
08:16AM -16.4321 -46.9725 302° West  Level Estimated
08:17AM -16.3771 -47.0637 302° West  Level Estimated
08:18AM -16.3222 -47.1549 302° West  Level Estimated
08:19AM -16.2672 -47.2460 302° West  Level Estimated
08:20AM -16.2121 -47.3371 302° West  Level Estimated
08:21AM -16.1570 -47.4281 302° West  Level Estimated
08:22AM -16.1019 -47.5191 302° West  Level Estimated
08:23AM -16.0467 -47.6100 302° West  Level Estimated
08:24AM -15.9915 -47.7008 302° West  Level Estimated
08:25AM -15.9363 -47.7916 302° West  Level Estimated
08:26AM -15.8810 -47.8824 302° West  Level Estimated
08:27AM -15.8626 -47.9127 302° West  Level Estimated
08:28AM -15.8626 -47.9127 128° Southeast  Level Estimated
08:29AM -15.8626 -47.9127 128° Southeast  Level Estimated
08:30AM -15.8626 -47.9127 128° Southeast  Level Estimated
08:31AM -15.8626 -47.9127 128° Southeast  Level Estimated
08:32AM -15.8626 -47.9127 128° Southeast  Level Estimated
08:33AM -15.8626 -47.9127 128° Southeast  Level Estimated
08:34AM -15.8626 -47.9127 128° Southeast  Level Estimated
08:35AM -15.8626 -47.9127 128° Southeast  Level Estimated
08:36AM -15.8626 -47.9127 128° Southeast  Level Estimated
08:37AM -15.8626 -47.9127 128° Southeast  Level Estimated
08:38AM -15.8626 -47.9127 128° Southeast  Level Estimated